createdAt,value
2019-05-28T00:01:32.905Z,7.60
2019-05-28T00:06:38.624Z,7.27
2019-05-28T00:11:43.911Z,7.90
2019-05-28T00:16:49.499Z,7.63
2019-05-28T00:21:54.864Z,9.00
2019-05-28T00:27:00.120Z,8.67
2019-05-28T00:32:05.982Z,8.30
2019-05-28T00:37:13.492Z,9.13
2019-05-28T00:42:19.038Z,9.13
2019-05-28T00:47:24.310Z,11.47
2019-05-28T00:52:29.665Z,8.87
2019-05-28T00:57:35.107Z,8.63
2019-05-28T01:02:42.931Z,9.40
2019-05-28T01:07:50.463Z,10.00
2019-05-28T01:12:55.974Z,9.90
2019-05-28T01:18:01.739Z,10.90
2019-05-28T01:23:07.090Z,10.90
2019-05-28T01:28:12.445Z,11.07
2019-05-28T01:33:17.718Z,9.80
2019-05-28T01:38:23.126Z,10.47
2019-05-28T01:43:29.007Z,10.30
2019-05-28T01:48:34.241Z,10.57
2019-05-28T01:53:39.534Z,13.17
2019-05-28T01:58:44.756Z,11.07
2019-05-28T02:03:50.105Z,11.10
2019-05-28T02:08:55.419Z,10.67
2019-05-28T02:14:00.782Z,9.50
2019-05-28T02:19:06.110Z,10.20
2019-05-28T02:24:11.514Z,9.93
2019-05-28T02:29:16.656Z,9.83
2019-05-28T02:34:22.993Z,10.63
2019-05-28T02:39:28.398Z,9.10
2019-05-28T02:44:35.992Z,9.00
2019-05-28T02:49:41.280Z,9.10
2019-05-28T02:54:46.620Z,10.70
2019-05-28T02:59:53.616Z,10.30
2019-05-28T03:05:01.650Z,9.93
2019-05-28T03:10:08.526Z,10.30
2019-05-28T03:15:14.247Z,9.93
2019-05-28T03:20:19.429Z,10.23
2019-05-28T03:25:25.331Z,9.97
2019-05-28T03:30:30.926Z,11.43
2019-05-28T03:35:38.536Z,11.83
2019-05-28T03:40:45.038Z,11.93
2019-05-28T03:45:50.433Z,12.40
2019-05-28T03:50:57.023Z,13.00
2019-05-28T03:56:02.664Z,12.90
2019-05-28T04:01:08.394Z,12.40
2019-05-28T04:06:13.600Z,11.10
2019-05-28T04:11:18.925Z,10.77
2019-05-28T04:16:24.972Z,12.07
2019-05-28T04:21:30.110Z,12.03
2019-05-28T04:26:35.507Z,10.93
2019-05-28T04:31:40.666Z,10.57
2019-05-28T04:36:45.899Z,11.27
2019-05-28T04:41:51.117Z,11.40
2019-05-28T04:46:56.412Z,12.23
2019-05-28T04:52:01.858Z,12.17
2019-05-28T04:57:07.427Z,11.53
2019-05-28T05:02:13.933Z,12.77
2019-05-28T05:07:19.351Z,14.57
2019-05-28T05:12:24.685Z,14.13
2019-05-28T05:17:30.859Z,13.67
2019-05-28T05:22:36.098Z,14.70
2019-05-28T05:27:41.370Z,15.20
2019-05-28T05:32:47.199Z,16.03
2019-05-28T05:37:52.751Z,15.03
2019-05-28T05:42:57.983Z,16.33
2019-05-28T05:48:03.963Z,15.60
2019-05-28T05:53:09.607Z,16.63
2019-05-28T05:58:15.266Z,15.23
2019-05-28T06:03:39.215Z,15.67
2019-05-28T06:08:27.645Z,13.83
2019-05-28T06:13:34.662Z,14.07
2019-05-28T06:18:39.859Z,13.33
2019-05-28T06:23:45.027Z,10.60
2019-05-28T06:28:50.269Z,9.23
2019-05-28T06:33:57.535Z,8.17
2019-05-28T06:39:03.047Z,7.73
2019-05-28T06:44:10.551Z,8.00
2019-05-28T06:49:17.683Z,8.57
2019-05-28T06:54:22.895Z,10.67
2019-05-28T06:59:28.150Z,9.50
2019-05-28T07:04:33.691Z,11.27
2019-05-28T07:09:38.984Z,10.10
2019-05-28T07:14:47.614Z,11.30
2019-05-28T07:19:55.654Z,11.60
2019-05-28T07:25:00.909Z,9.00
2019-05-28T07:30:09.731Z,8.80
2019-05-28T07:35:16.544Z,9.70
2019-05-28T07:40:30.926Z,10.23
2019-05-28T07:45:28.708Z,7.93
2019-05-28T07:50:33.884Z,8.23
2019-05-28T07:55:39.014Z,8.63
2019-05-28T08:00:45.200Z,7.97
2019-05-28T08:05:51.265Z,6.10
2019-05-28T08:10:56.564Z,6.30
2019-05-28T08:16:18.093Z,6.70
2019-05-28T08:21:17.418Z,6.63
2019-05-28T08:26:23.426Z,5.80
2019-05-28T08:31:30.808Z,5.70
2019-05-28T08:36:35.950Z,6.03
2019-05-28T08:41:41.353Z,5.57
2019-05-28T08:46:47.436Z,5.23
2019-05-28T08:51:59.897Z,5.60
2019-05-28T08:57:05.094Z,5.73
2019-05-28T09:02:27.312Z,5.37
2019-05-28T09:07:19.305Z,5.60
2019-05-28T09:12:25.849Z,5.90
2019-05-28T09:17:34.274Z,6.40
2019-05-28T09:22:39.527Z,6.10
2019-05-28T09:27:45.187Z,6.40
2019-05-28T09:32:50.962Z,6.00
2019-05-28T09:37:56.324Z,6.63
2019-05-28T09:43:01.610Z,8.30
2019-05-28T09:48:06.904Z,6.13
2019-05-28T09:53:12.498Z,7.17
2019-05-28T09:58:19.133Z,7.20
2019-05-28T10:03:24.378Z,8.27
2019-05-28T10:08:30.103Z,8.27
2019-05-28T10:13:40.939Z,8.40
2019-05-28T10:18:44.243Z,7.53
2019-05-28T10:23:49.807Z,7.03
2019-05-28T10:28:55.866Z,6.73
2019-05-28T10:34:01.874Z,6.50
2019-05-28T10:39:08.613Z,8.00
2019-05-28T10:44:13.936Z,5.57
2019-05-28T10:49:19.382Z,6.57
2019-05-28T10:54:24.657Z,7.27
2019-05-28T10:59:29.797Z,7.43
2019-05-28T11:04:38.006Z,6.30
2019-05-28T11:09:43.157Z,5.53
2019-05-28T11:14:48.367Z,5.63
2019-05-28T11:19:53.936Z,6.10
2019-05-28T11:24:59.212Z,5.77
2019-05-28T11:30:06.993Z,4.50
2019-05-28T11:35:15.523Z,5.60
2019-05-28T11:40:21.578Z,5.37
2019-05-28T11:45:27.110Z,6.07
2019-05-28T11:50:32.609Z,5.13
2019-05-28T11:55:37.863Z,5.20
2019-05-28T12:00:43.067Z,5.40
2019-05-28T12:05:48.298Z,4.97
2019-05-28T12:10:53.626Z,4.87
2019-05-28T12:15:58.965Z,5.70
2019-05-28T12:21:04.398Z,5.30
2019-05-28T12:26:09.720Z,5.20
2019-05-28T12:31:14.836Z,4.63
2019-05-28T12:36:20.344Z,4.97
2019-05-28T12:41:25.472Z,4.20
2019-05-28T12:46:31.749Z,4.67
2019-05-28T12:51:39.265Z,5.57
2019-05-28T12:56:45.694Z,4.83
2019-05-28T13:01:50.850Z,4.97
2019-05-28T13:06:56.263Z,5.80
2019-05-28T13:12:02.490Z,5.37
2019-05-28T13:17:07.781Z,5.77
2019-05-28T13:22:15.684Z,5.80
2019-05-28T13:27:22.005Z,5.40
2019-05-28T13:32:28.763Z,5.77
2019-05-28T13:37:33.983Z,6.90
2019-05-28T13:42:39.127Z,6.13
2019-05-28T13:47:44.509Z,7.10
2019-05-28T13:52:50.212Z,6.10
2019-05-28T13:57:56.469Z,6.07
2019-05-28T14:03:01.762Z,7.43
2019-05-28T14:08:07.067Z,7.10
2019-05-28T14:13:15.447Z,6.77
2019-05-28T14:18:20.607Z,7.90
2019-05-28T14:23:26.076Z,7.20
2019-05-28T14:28:31.529Z,7.47
2019-05-28T14:33:36.786Z,6.47
2019-05-28T14:38:42.217Z,7.07
2019-05-28T14:43:49.086Z,7.10
2019-05-28T14:48:54.724Z,6.73
2019-05-28T14:54:00.316Z,7.20
2019-05-28T14:59:06.678Z,7.17
2019-05-28T15:04:12.867Z,5.83
2019-05-28T15:09:21.276Z,6.53
2019-05-28T15:14:26.227Z,6.37
2019-05-28T15:19:31.558Z,6.53
2019-05-28T15:24:37.300Z,6.53
2019-05-28T15:29:43.790Z,7.07
2019-05-28T15:34:49.006Z,6.27
2019-05-28T15:39:56.336Z,5.93
2019-05-28T15:45:02.265Z,6.33
2019-05-28T15:50:08.253Z,6.70
2019-05-28T15:55:13.919Z,5.80
2019-05-28T16:00:22.243Z,6.10
2019-05-28T16:05:27.546Z,6.67
2019-05-28T16:10:34.299Z,6.20
2019-05-28T16:15:39.563Z,6.80
2019-05-28T16:20:45.027Z,6.03
2019-05-28T16:25:50.695Z,7.03
2019-05-28T16:31:11.224Z,7.03
2019-05-28T16:36:06.674Z,7.67
2019-05-28T16:41:12.130Z,7.97
2019-05-28T16:46:17.283Z,7.93
2019-05-28T16:51:24.981Z,7.37
2019-05-28T16:56:30.654Z,8.43
2019-05-28T17:01:35.790Z,8.03
2019-05-28T17:06:40.980Z,8.40
2019-05-28T17:11:46.497Z,8.83
2019-05-28T17:16:52.017Z,9.17
2019-05-28T17:21:57.859Z,9.00
2019-05-28T17:27:03.860Z,8.63
2019-05-28T17:32:09.423Z,10.23
2019-05-28T17:37:14.624Z,9.67
2019-05-28T17:42:20.140Z,8.83
2019-05-28T17:47:25.386Z,8.57
2019-05-28T17:52:30.669Z,9.00
2019-05-28T17:57:37.300Z,8.30
2019-05-28T18:02:42.554Z,7.97
2019-05-28T18:07:47.880Z,8.23
2019-05-28T18:12:53.315Z,7.27
2019-05-28T18:17:58.618Z,7.23
2019-05-28T18:23:04.009Z,7.20
2019-05-28T18:28:09.534Z,8.33
2019-05-28T18:33:16.810Z,7.20
2019-05-28T18:38:22.051Z,7.43
2019-05-28T18:43:27.897Z,7.63
2019-05-28T18:48:33.147Z,8.97
2019-05-28T18:53:38.893Z,7.07
2019-05-28T18:58:44.224Z,7.60
2019-05-28T19:03:49.608Z,8.43
2019-05-28T19:08:54.751Z,8.27
2019-05-28T19:14:00.042Z,9.53
2019-05-28T19:19:05.331Z,11.00
2019-05-28T19:24:10.620Z,8.73
2019-05-28T19:29:16.018Z,10.10
2019-05-28T19:34:21.661Z,11.37
2019-05-28T19:39:28.933Z,9.27
2019-05-28T19:44:35.588Z,9.93
2019-05-28T19:49:40.877Z,8.70
2019-05-28T19:54:48.484Z,10.17
2019-05-28T19:59:56.802Z,10.60
2019-05-28T20:05:04.375Z,9.57
2019-05-28T20:10:09.801Z,10.47
2019-05-28T20:15:23.761Z,9.47
2019-05-28T20:20:28.211Z,9.13
2019-05-28T20:25:33.467Z,10.07
2019-05-28T20:30:40.559Z,8.93
2019-05-28T20:35:45.762Z,8.90
2019-05-28T20:40:50.953Z,9.07
2019-05-28T20:45:56.599Z,8.33
2019-05-28T20:51:09.710Z,9.47
2019-05-28T20:56:10.077Z,9.07
2019-05-28T21:01:15.687Z,10.47
2019-05-28T21:06:21.286Z,10.00
2019-05-28T21:11:26.521Z,10.90
2019-05-28T21:16:32.288Z,18.60
2019-05-28T21:21:37.516Z,10.50
2019-05-28T21:26:42.814Z,12.93
2019-05-28T21:31:48.850Z,11.40
2019-05-28T21:36:54.926Z,9.80
2019-05-28T21:42:01.763Z,9.90
2019-05-28T21:47:07.228Z,9.90
2019-05-28T21:52:12.431Z,10.90
2019-05-28T21:57:17.816Z,13.43
2019-05-28T22:02:23.379Z,45.30
2019-05-28T22:07:28.635Z,14.87
2019-05-28T22:12:34.839Z,9.50
2019-05-28T22:17:40.048Z,9.30
2019-05-28T22:22:45.242Z,9.17
2019-05-28T22:27:50.561Z,22.83
2019-05-28T22:32:56.118Z,9.70
2019-05-28T22:38:01.409Z,7.30
2019-05-28T22:43:06.874Z,7.50
2019-05-28T22:48:16.811Z,5.67
2019-05-28T22:53:19.231Z,5.37
2019-05-28T22:58:24.560Z,6.03
2019-05-28T23:03:29.835Z,5.13
2019-05-28T23:08:35.064Z,5.47
2019-05-28T23:13:46.914Z,6.17
2019-05-28T23:18:47.334Z,6.20
2019-05-28T23:23:52.464Z,7.17
2019-05-28T23:28:57.859Z,7.23
2019-05-28T23:34:04.315Z,7.00
2019-05-28T23:39:11.133Z,7.67
2019-05-28T23:44:16.681Z,7.70
2019-05-28T23:49:22.115Z,7.10
2019-05-28T23:54:27.746Z,6.93
2019-05-28T23:59:32.990Z,7.20
